Jump to content


DELTA AIRLINES FLIGHT DL 762 FLOWN ON 06-05-2017 BY CAPTAIN A GREAVES

Pilot StatsCaptain A Greaves (LDP528) • 13.8 total hours • 8 total flights [View Logbook]
FLIGHT DETAILS
StatusReceived and approved on 2017-06-04 at 23:06:44
Origin AirportChicago Midway Intl (KMDW) • Chicago, Illinois, United States (620 feet MSL)
Filed Flight PlanKMDW CADIZ J89 NOONE KATL
Destination AirportHartsfield - Jackson Atlanta I (KATL) • Atlanta, Georgia, United States (1,026 feet MSL)
Alternate AirportNone Filed
AirlineDelta Airlines
AircraftAirbus A320 (320 / A320)
FS Aircraft UsedAirbus A320-214 Delta Airlines
Cruising AltitudeFL330
Distance Flown514 nautical miles
Passengers Onboard129 passengers (86.00% full)
DEPARTURE DETAILS
Time Out21:08:06
Taxi Data141,501 lbs total with 19,861 lbs of fuel onboard
Takeoff Data21:27:35 (19 minutes after leaving gate/ramp) • 141,050 lbs total • 10° pitch at 159 knots
Departure METARKMDW 050053Z 06008KT 10SM FEW075 SCT250 28/14 A2975 RMK AO2 WSHFT 0006 SLP063 T02830144
ARRIVAL DETAILS
Landing Data23:45:37 • 133,366 lbs total • 4° pitch doing 131 knots at a rate of -221.46 feet/minute with 11,482 lbs of fuel onboard
Time In23:52:59 (7 minutes after landing)
Ramp Weight133,121 lbs total
Total Fuel Used8,379 lbs
Total Block Time01:44:37 (1.7 hours) while 27 minutes were spent on the ground
Arrival METARKATL 050352Z 14005KT 10SM SCT004 BKN011 BKN065 OVC130 22/21 A2994 RMK AO2 RAE23 SLP129 CIG 009V013 P0000 T02170211 $
MISCELLANEOUS DETAILS
LiveDISPATCH Version4.8.3.1
FS Version
FSUIPC Version4.96
OS VersionWindows 7 32-bit
Screen Resolution1920 x 1080
Pilot's CommentsNo Comments Reported
FLIGHT MAP